Time;durP1;ratioP1;P1;durP2;ratioP2;P2;SDS_P1;SDS_P2;PMS_P1;PMS_P2;Temp;Humidity;BMP_temperature;BMP_pressure;BME280_temperature;BME280_humidity;BME280_pressure;Samples;Min_cycle;Max_cycle;Signal;HPM_P1;HPM_P2
2022/05/28 00:00:56;;;;;;;7.18;1.77;;;13.00;96.30;;;;;;4949577;28;20393;-44
2022/05/28 00:03:23;;;;;;;7.45;2.08;;;13.00;96.40;;;;;;4949920;28;20030;-44
2022/05/28 00:05:49;;;;;;;8.55;2.05;;;12.90;96.50;;;;;;4949774;28;20062;-44
2022/05/28 00:08:15;;;;;;;8.98;2.38;;;12.90;96.60;;;;;;4949054;28;20031;-44
2022/05/28 00:10:41;;;;;;;6.68;1.80;;;12.90;96.60;;;;;;4950227;29;20050;-45
2022/05/28 00:13:07;;;;;;;5.43;1.50;;;12.90;96.70;;;;;;4949700;28;20019;-44
2022/05/28 00:15:33;;;;;;;6.60;1.80;;;12.80;96.70;;;;;;4948831;28;20031;-44
2022/05/28 00:17:59;;;;;;;5.65;1.73;;;12.80;96.80;;;;;;4949463;29;20498;-44
2022/05/28 00:20:25;;;;;;;4.85;1.88;;;12.80;96.90;;;;;;4949145;28;20035;-45
2022/05/28 00:22:51;;;;;;;5.38;1.63;;;12.70;97.00;;;;;;4948614;28;20406;-44
2022/05/28 00:25:17;;;;;;;4.60;1.95;;;12.70;97.00;;;;;;4949524;29;20055;-44
2022/05/28 00:27:43;;;;;;;3.20;1.50;;;12.70;97.10;;;;;;4949339;28;20478;-43
2022/05/28 00:30:12;;;;;;;6.90;1.92;;;12.60;97.20;;;;;;4948486;29;20046;-43
2022/05/28 00:32:37;;;;;;;5.72;1.67;;;12.60;97.30;;;;;;4948912;28;20051;-44
2022/05/28 00:35:05;;;;;;;8.15;2.00;;;12.60;97.40;;;;;;4949675;28;20050;-43
2022/05/28 00:37:31;;;;;;;7.13;2.00;;;12.60;97.40;;;;;;4947880;28;20031;-45
2022/05/28 00:39:57;;;;;;;6.20;1.52;;;12.60;97.50;;;;;;4949188;28;20367;-43
2022/05/28 00:42:22;;;;;;;5.03;1.73;;;12.50;97.60;;;;;;4948221;29;20318;-43
2022/05/28 00:44:48;;;;;;;5.15;1.60;;;12.50;97.60;;;;;;4948410;29;20137;-43
2022/05/28 00:47:14;;;;;;;4.93;1.63;;;12.50;97.80;;;;;;4948682;29;20042;-42
2022/05/28 00:49:41;;;;;;;6.00;1.67;;;12.50;97.80;;;;;;4948371;28;20453;-45
2022/05/28 00:52:07;;;;;;;5.43;1.42;;;12.50;97.90;;;;;;4948785;29;20066;-45
2022/05/28 00:54:46;;;;;;;5.22;1.70;;;12.40;97.90;;;;;;4948432;28;20307;-45
2022/05/28 00:57:14;;;;;;;4.93;2.15;;;12.40;98.00;;;;;;4948313;29;20157;-44
2022/05/28 00:59:41;;;;;;;8.30;2.00;;;12.30;98.10;;;;;;4947976;28;20505;-44
2022/05/28 01:02:38;;;;;;;6.03;1.88;;;12.30;98.10;;;;;;4948993;29;20070;-45
2022/05/28 01:05:13;;;;;;;6.68;1.90;;;12.30;98.30;;;;;;4947949;28;20118;-44
2022/05/28 01:08:06;;;;;;;9.70;2.03;;;12.30;98.30;;;;;;4948329;29;20636;-44
2022/05/28 01:10:45;;;;;;;5.50;1.52;;;12.30;98.40;;;;;;4944786;29;20075;-44
2022/05/28 01:13:25;;;;;;;5.00;1.90;;;12.30;98.40;;;;;;4929603;29;20040;-44
2022/05/28 01:15:59;;;;;;;6.22;2.10;;;12.20;98.50;;;;;;4945609;29;20483;-43
2022/05/28 01:18:39;;;;;;;6.45;1.75;;;12.20;98.50;;;;;;4928101;29;20455;-44
2022/05/28 01:21:09;;;;;;;4.88;1.42;;;12.20;98.60;;;;;;4945253;29;20395;-45
2022/05/28 01:23:50;;;;;;;5.00;1.52;;;12.20;98.70;;;;;;4948084;28;20083;-44
2022/05/28 01:26:25;;;;;;;5.00;1.70;;;12.20;98.70;;;;;;4947710;29;20092;-42
2022/05/28 01:28:57;;;;;;;5.65;1.73;;;12.20;98.80;;;;;;4948378;28;20059;-45
2022/05/28 01:31:25;;;;;;;6.22;1.85;;;12.10;98.90;;;;;;4947598;29;20035;-44
2022/05/28 01:33:52;;;;;;;6.30;1.70;;;12.10;99.00;;;;;;4948126;28;20035;-44
2022/05/28 01:36:19;;;;;;;5.45;1.60;;;12.10;99.00;;;;;;4947580;28;20296;-45
2022/05/28 01:38:47;;;;;;;6.60;2.00;;;12.10;99.10;;;;;;4947400;29;20538;-44
2022/05/28 01:41:14;;;;;;;4.63;1.63;;;12.10;99.30;;;;;;4947600;29;20042;-44
2022/05/28 01:43:44;;;;;;;6.20;1.90;;;12.10;99.40;;;;;;4947889;29;20083;-44
2022/05/28 01:46:12;;;;;;;5.78;1.88;;;12.10;99.50;;;;;;4947289;28;20023;-44
2022/05/28 01:48:39;;;;;;;6.38;1.80;;;12.00;99.60;;;;;;4947446;29;20039;-44
2022/05/28 01:51:07;;;;;;;5.93;1.48;;;12.10;99.70;;;;;;4947946;28;20051;-44
2022/05/28 01:56:21;;;;;;;5.28;1.80;;;12.10;99.90;;;;;;4947218;29;20037;-44
2022/05/28 01:58:47;;;;;;;7.05;2.58;;;12.10;99.90;;;;;;4947502;29;20060;-43
2022/05/28 02:01:12;;;;;;;4.93;1.40;;;12.00;99.90;;;;;;4947134;28;20079;-43
2022/05/28 02:03:42;;;;;;;8.40;1.67;;;12.00;99.90;;;;;;4947679;29;20110;-43
2022/05/28 02:06:08;;;;;;;4.47;1.65;;;12.00;99.90;;;;;;4947643;28;20090;-43
2022/05/28 02:08:37;;;;;;;7.70;1.75;;;12.00;99.90;;;;;;4946856;28;20027;-44
2022/05/28 02:11:15;;;;;;;6.45;1.88;;;12.00;99.90;;;;;;4947892;28;20047;-43
2022/05/28 02:13:55;;;;;;;7.80;1.70;;;11.90;99.90;;;;;;4947278;28;20035;-45
2022/05/28 02:16:30;;;;;;;6.32;1.77;;;11.90;99.90;;;;;;4947543;28;20027;-44
2022/05/28 02:19:01;;;;;;;8.88;2.35;;;11.90;99.90;;;;;;4947301;28;20020;-44
2022/05/28 02:21:34;;;;;;;9.70;2.67;;;11.90;99.90;;;;;;4946818;28;20442;-45
2022/05/28 02:24:26;;;;;;;;;;;11.90;99.90;;;;;;4948110;28;20059;-44
2022/05/28 02:26:58;;;;;;;7.07;1.65;;;11.90;99.90;;;;;;4946662;29;20242;-44
2022/05/28 02:29:24;;;;;;;7.90;1.80;;;11.80;99.90;;;;;;4946607;28;20035;-44
2022/05/28 02:31:50;;;;;;;6.97;2.53;;;11.80;99.90;;;;;;4947615;28;20023;-44
2022/05/28 02:34:17;;;;;;;5.57;2.28;;;11.80;99.90;;;;;;4947033;29;20043;-44
2022/05/28 02:36:43;;;;;;;6.20;2.38;;;11.70;99.90;;;;;;4946635;28;20086;-45
2022/05/28 02:39:09;;;;;;;4.30;1.55;;;11.70;99.90;;;;;;4947646;29;20019;-45
2022/05/28 02:41:35;;;;;;;5.70;1.98;;;11.70;99.90;;;;;;4947229;28;20360;-44
2022/05/28 02:44:00;;;;;;;6.88;1.80;;;11.70;99.90;;;;;;4946551;29;20541;-43
2022/05/28 02:46:26;;;;;;;7.90;2.90;;;11.60;99.90;;;;;;4947359;29;20729;-44
2022/05/28 02:48:51;;;;;;;7.55;1.90;;;11.60;99.90;;;;;;4947685;29;20027;-44
2022/05/28 02:51:19;;;;;;;6.45;1.85;;;11.60;99.90;;;;;;4946760;29;20071;-43
2022/05/28 02:53:45;;;;;;;7.60;2.00;;;11.60;99.90;;;;;;4947294;28;20031;-44
2022/05/28 02:56:11;;;;;;;4.85;1.50;;;11.60;99.90;;;;;;4947456;28;20111;-44
2022/05/28 02:58:37;;;;;;;5.28;1.88;;;11.60;99.90;;;;;;4946893;28;20106;-44
2022/05/28 03:01:16;;;;;;;6.57;1.65;;;11.60;99.90;;;;;;4948072;28;20038;-44
2022/05/28 03:03:42;;;;;;;7.00;1.80;;;11.50;99.90;;;;;;4948232;28;20025;-44
2022/05/28 03:06:08;;;;;;;7.70;2.55;;;11.50;99.90;;;;;;4951006;28;20495;-44
2022/05/28 03:08:34;;;;;;;6.38;1.60;;;11.50;99.90;;;;;;4949915;29;20145;-44
2022/05/28 03:10:59;;;;;;;7.28;2.10;;;11.50;99.90;;;;;;4950867;28;20039;-45
2022/05/28 03:13:25;;;;;;;5.35;2.10;;;11.50;99.90;;;;;;4950322;29;20475;-44
2022/05/28 03:15:50;;;;;;;7.35;1.88;;;11.50;99.90;;;;;;4951164;29;20059;-43
2022/05/28 03:18:16;;;;;;;7.88;2.25;;;11.50;99.90;;;;;;4950742;29;20023;-44
2022/05/28 03:20:41;;;;;;;7.30;2.03;;;11.40;99.90;;;;;;4950495;29;20467;-43
2022/05/28 03:23:07;;;;;;;6.72;1.77;;;11.50;99.90;;;;;;4951046;29;20781;-44
2022/05/28 03:25:32;;;;;;;8.40;1.98;;;11.40;99.90;;;;;;4949419;29;20368;-43
2022/05/28 03:27:58;;;;;;;6.93;2.30;;;11.40;99.90;;;;;;4950349;29;20050;-43
2022/05/28 03:30:23;;;;;;;7.88;2.20;;;11.40;99.90;;;;;;4950239;28;20039;-44
2022/05/28 03:32:49;;;;;;;5.95;1.83;;;11.40;99.90;;;;;;4949636;29;20054;-44
2022/05/28 03:35:14;;;;;;;7.18;1.80;;;11.40;99.90;;;;;;4950033;28;20035;-44
2022/05/28 03:37:40;;;;;;;5.70;1.55;;;11.40;99.90;;;;;;4950157;29;20039;-44
2022/05/28 03:40:06;;;;;;;8.35;2.10;;;11.40;99.90;;;;;;4949474;28;20118;-44
2022/05/28 03:42:31;;;;;;;6.78;1.45;;;11.40;99.90;;;;;;4949507;28;20082;-43
2022/05/28 03:44:57;;;;;;;8.48;1.83;;;11.40;99.90;;;;;;4950242;28;20019;-43
2022/05/28 03:47:22;;;;;;;5.05;1.45;;;11.40;99.90;;;;;;4949493;29;20020;-42
2022/05/28 03:49:48;;;;;;;8.18;1.73;;;11.40;99.90;;;;;;4949779;29;20110;-43
2022/05/28 03:52:14;;;;;;;3.97;1.40;;;11.40;99.90;;;;;;4949707;29;20503;-44
2022/05/28 03:54:43;;;;;;;6.63;1.98;;;11.40;99.90;;;;;;4949308;28;20431;-44
2022/05/28 03:57:14;;;;;;;6.82;1.95;;;11.40;99.90;;;;;;4949379;28;20487;-43
2022/05/28 03:59:39;;;;;;;7.55;1.83;;;11.40;99.90;;;;;;4949201;28;20026;-43
2022/05/28 04:02:05;;;;;;;5.30;1.45;;;11.40;99.90;;;;;;4951047;29;20485;-45
2022/05/28 04:04:31;;;;;;;4.85;1.30;;;11.40;99.90;;;;;;4950765;28;20382;-44
2022/05/28 04:06:58;;;;;;;7.78;1.38;;;11.40;99.90;;;;;;4950774;28;20035;-44
2022/05/28 04:09:24;;;;;;;6.35;1.52;;;11.40;99.90;;;;;;4950520;29;20027;-43
2022/05/28 04:11:49;;;;;;;8.63;2.22;;;11.40;99.90;;;;;;4949517;29;20078;-44
2022/05/28 04:14:15;;;;;;;6.82;1.80;;;11.40;99.90;;;;;;4948840;28;20023;-43
2022/05/28 04:16:40;;;;;;;8.88;2.40;;;11.40;99.90;;;;;;4948773;28;20474;-44
2022/05/28 04:19:06;;;;;;;6.95;2.10;;;11.40;99.90;;;;;;4949524;29;20152;-45
2022/05/28 04:21:31;;;;;;;5.40;1.40;;;11.40;99.90;;;;;;4947788;29;20023;-44
2022/05/28 04:23:57;;;;;;;6.65;2.20;;;11.40;99.90;;;;;;4949729;29;20031;-44
2022/05/28 04:26:23;;;;;;;6.78;1.65;;;11.40;99.90;;;;;;4948337;28;20438;-44
2022/05/28 04:28:48;;;;;;;10.20;1.95;;;11.40;99.90;;;;;;4948693;29;20042;-44
2022/05/28 04:31:14;;;;;;;8.60;1.70;;;11.40;99.90;;;;;;4948841;29;20558;-43
2022/05/28 04:33:39;;;;;;;5.03;1.25;;;11.40;99.90;;;;;;4949355;28;20035;-44
2022/05/28 04:36:05;;;;;;;4.05;1.20;;;11.40;99.90;;;;;;4948791;29;20026;-44
2022/05/28 04:38:30;;;;;;;5.95;2.05;;;11.40;99.90;;;;;;4948891;29;20054;-44
2022/05/28 04:40:56;;;;;;;5.45;1.50;;;11.40;99.90;;;;;;4949363;29;20114;-44
2022/05/28 04:43:21;;;;;;;6.97;2.00;;;11.40;99.90;;;;;;4948163;29;20102;-44
2022/05/28 04:45:47;;;;;;;5.00;1.27;;;11.40;99.90;;;;;;4949416;29;20522;-44
2022/05/28 04:48:13;;;;;;;6.93;1.30;;;11.40;99.90;;;;;;4948822;29;20031;-43
2022/05/28 04:50:39;;;;;;;5.55;1.38;;;11.40;99.90;;;;;;4947871;28;20114;-44
2022/05/28 04:53:04;;;;;;;6.50;1.27;;;11.50;99.90;;;;;;4948918;29;20475;-44
2022/05/28 04:55:31;;;;;;;4.72;1.33;;;11.50;99.90;;;;;;4948131;29;20376;-44
2022/05/28 04:57:56;;;;;;;3.55;1.23;;;11.50;99.90;;;;;;4947968;29;20093;-44
2022/05/28 05:00:25;;;;;;;7.57;1.73;;;11.50;99.90;;;;;;4949062;28;20498;-44
2022/05/28 05:02:50;;;;;;;4.82;1.30;;;11.50;99.90;;;;;;4948129;29;20019;-43
2022/05/28 05:05:17;;;;;;;3.25;1.20;;;11.50;99.90;;;;;;4948155;29;20125;-43
2022/05/28 05:07:42;;;;;;;5.65;1.50;;;11.50;99.90;;;;;;4948151;29;20106;-44
2022/05/28 05:10:09;;;;;;;4.85;1.20;;;11.60;99.90;;;;;;4948154;28;20435;-44
2022/05/28 05:12:34;;;;;;;4.40;1.10;;;11.60;99.90;;;;;;4947614;29;20023;-44
2022/05/28 05:15:00;;;;;;;4.22;1.10;;;11.60;99.90;;;;;;4948897;29;20509;-44
2022/05/28 05:17:26;;;;;;;4.40;1.20;;;11.60;99.90;;;;;;4947753;28;20090;-44
2022/05/28 05:19:52;;;;;;;3.40;1.20;;;11.70;99.90;;;;;;4948171;29;20549;-44
2022/05/28 05:22:18;;;;;;;5.78;1.67;;;11.70;99.90;;;;;;4947601;29;20445;-44
2022/05/28 05:24:44;;;;;;;4.80;1.40;;;11.80;99.90;;;;;;4947523;28;20100;-44
2022/05/28 05:27:10;;;;;;;6.00;1.33;;;11.90;99.90;;;;;;4947616;28;20505;-43
2022/05/28 05:29:36;;;;;;;4.72;1.20;;;12.00;99.90;;;;;;4947239;28;20518;-44
2022/05/28 05:32:02;;;;;;;8.63;1.60;;;12.10;99.90;;;;;;4948043;28;20035;-44
2022/05/28 05:34:28;;;;;;;7.15;1.30;;;12.10;99.90;;;;;;4947374;29;20042;-44
2022/05/28 05:36:53;;;;;;;7.07;1.40;;;12.10;99.90;;;;;;4948184;29;20044;-44
2022/05/28 05:39:18;;;;;;;3.85;1.00;;;12.10;99.90;;;;;;4947464;29;20481;-44
2022/05/28 05:41:44;;;;;;;4.35;1.08;;;12.10;99.90;;;;;;4948495;29;20030;-44
2022/05/28 05:44:10;;;;;;;8.93;2.15;;;12.20;99.90;;;;;;4948244;29;20502;-43
2022/05/28 05:46:40;;;;;;;7.82;1.25;;;12.20;99.90;;;;;;4946481;28;20522;-43
2022/05/28 05:49:05;;;;;;;4.25;1.10;;;12.20;99.90;;;;;;4948022;28;20045;-44
2022/05/28 05:51:31;;;;;;;5.40;1.02;;;12.20;99.90;;;;;;4947037;29;20502;-44
2022/05/28 05:53:56;;;;;;;7.03;1.25;;;12.20;99.90;;;;;;4947317;29;20015;-44
2022/05/28 05:56:22;;;;;;;3.42;1.00;;;12.30;99.90;;;;;;4948172;29;20039;-44
2022/05/28 05:58:48;;;;;;;4.70;0.93;;;12.30;99.90;;;;;;4947388;28;20024;-43
2022/05/28 06:01:13;;;;;;;6.20;1.58;;;12.30;99.90;;;;;;4947142;28;20359;-43
2022/05/28 06:03:44;;;;;;;8.02;1.40;;;12.40;99.90;;;;;;4947771;28;20051;-43
2022/05/28 06:06:13;;;;;;;3.60;1.05;;;12.40;99.90;;;;;;4947630;28;20027;-43
2022/05/28 06:08:38;;;;;;;3.38;0.90;;;12.40;99.90;;;;;;4947544;29;20059;-44
2022/05/28 06:11:04;;;;;;;3.50;0.82;;;12.50;99.90;;;;;;4947528;29;20267;-44
2022/05/28 06:13:30;;;;;;;4.63;1.30;;;12.60;99.90;;;;;;4946797;28;20042;-44
2022/05/28 06:15:55;;;;;;;6.18;1.20;;;12.70;99.90;;;;;;4947549;29;20501;-44
2022/05/28 06:18:21;;;;;;;4.13;1.23;;;12.80;99.90;;;;;;4948044;29;20498;-44
2022/05/28 06:20:49;;;;;;;8.40;1.63;;;12.80;99.90;;;;;;4946557;28;20027;-44
2022/05/28 06:23:15;;;;;;;5.93;1.40;;;12.90;99.90;;;;;;4946962;28;20028;-44
2022/05/28 06:25:41;;;;;;;4.85;1.30;;;12.90;99.90;;;;;;4947556;29;20463;-43
2022/05/28 06:28:06;;;;;;;6.05;1.55;;;12.90;99.90;;;;;;4947287;29;20036;-43
2022/05/28 06:30:32;;;;;;;7.10;1.35;;;12.90;99.90;;;;;;4946708;28;20542;-44
2022/05/28 06:32:57;;;;;;;6.47;1.27;;;12.90;99.90;;;;;;4948041;29;20031;-43
2022/05/28 06:35:23;;;;;;;6.55;1.75;;;13.00;99.90;;;;;;4946794;29;20034;-45
2022/05/28 06:37:49;;;;;;;3.45;1.20;;;13.00;99.90;;;;;;4947483;28;20062;-43
2022/05/28 06:40:15;;;;;;;5.55;1.33;;;13.00;99.90;;;;;;4951401;28;20106;-44
2022/05/28 06:42:41;;;;;;;5.25;1.10;;;12.90;99.90;;;;;;4950397;29;20036;-44
2022/05/28 06:45:13;;;;;;;4.93;1.23;;;12.80;99.90;;;;;;4951567;28;20115;-44
2022/05/28 06:47:43;;;;;;;5.90;1.27;;;12.80;99.90;;;;;;4951540;28;20062;-44
2022/05/28 06:52:54;;;;;;;4.97;1.50;;;12.80;99.90;;;;;;4949471;29;20073;-44
2022/05/28 06:55:19;;;;;;;7.45;1.25;;;12.70;99.90;;;;;;4950600;29;20471;-45
2022/05/28 06:57:45;;;;;;;9.10;1.92;;;12.70;99.30;;;;;;4950632;29;20408;-43
2022/05/28 07:00:11;;;;;;;5.50;1.00;;;12.70;99.40;;;;;;4951017;29;20063;-43
2022/05/28 07:02:36;;;;;;;6.10;2.05;;;12.80;99.20;;;;;;4949454;29;20122;-44
2022/05/28 07:05:02;;;;;;;3.05;0.85;;;12.80;99.30;;;;;;4951693;29;20505;-44
2022/05/28 07:07:28;;;;;;;4.80;1.40;;;12.90;99.30;;;;;;4950228;29;20072;-44
2022/05/28 07:09:53;;;;;;;6.93;1.42;;;13.00;98.50;;;;;;4950099;29;20040;-43
2022/05/28 07:12:19;;;;;;;4.38;1.30;;;13.00;97.10;;;;;;4950640;29;20403;-45
2022/05/28 07:14:44;;;;;;;4.18;1.30;;;13.10;97.00;;;;;;4950414;29;20031;-44
2022/05/28 07:17:10;;;;;;;9.02;1.58;;;13.10;96.60;;;;;;4949598;29;20030;-45
2022/05/28 07:19:36;;;;;;;5.03;1.27;;;13.10;97.00;;;;;;4950831;28;20027;-43
2022/05/28 07:22:02;;;;;;;4.43;1.00;;;13.20;97.30;;;;;;4950522;29;20568;-44
2022/05/28 07:24:27;;;;;;;3.35;1.00;;;13.30;97.00;;;;;;4949308;29;20036;-44
2022/05/28 07:26:53;;;;;;;4.05;1.20;;;13.40;96.70;;;;;;4950429;29;20023;-45
2022/05/28 07:29:18;;;;;;;4.60;1.20;;;13.50;96.50;;;;;;4946729;29;20031;-44
2022/05/28 07:31:45;;;;;;;7.15;1.92;;;13.60;95.80;;;;;;4948788;29;20035;-43
2022/05/28 07:34:11;;;;;;;5.97;1.65;;;13.60;95.70;;;;;;4949743;28;20081;-43
2022/05/28 07:36:37;;;;;;;5.10;1.88;;;13.80;95.40;;;;;;4949395;28;20442;-44
2022/05/28 07:39:03;;;;;;;7.00;1.35;;;13.90;95.60;;;;;;4948726;29;20085;-44
2022/05/28 07:41:29;;;;;;;6.32;1.38;;;14.00;95.90;;;;;;4949543;28;20039;-44
2022/05/28 07:43:56;;;;;;;6.32;1.75;;;14.10;96.30;;;;;;4949159;29;20031;-44
2022/05/28 07:46:24;;;;;;;3.70;1.42;;;14.30;96.30;;;;;;4948887;28;20035;-44
2022/05/28 07:48:50;;;;;;;4.35;1.20;;;14.40;96.40;;;;;;4949496;28;20031;-44
2022/05/28 07:51:17;;;;;;;6.20;1.98;;;14.40;95.40;;;;;;4948297;28;20126;-43
2022/05/28 07:53:43;;;;;;;7.97;1.30;;;14.40;95.70;;;;;;4948083;28;20023;-43
2022/05/28 07:56:09;;;;;;;7.25;1.23;;;14.20;95.40;;;;;;4949637;29;20043;-44
2022/05/28 07:58:35;;;;;;;5.82;1.05;;;14.20;95.70;;;;;;4947806;28;20449;-43
2022/05/28 08:01:01;;;;;;;4.82;1.35;;;14.20;95.90;;;;;;4948985;28;20042;-44
2022/05/28 08:03:27;;;;;;;2.83;1.10;;;14.30;95.50;;;;;;4948433;28;20029;-44
2022/05/28 08:05:54;;;;;;;9.00;1.45;;;14.40;95.30;;;;;;4948679;29;20427;-44
2022/05/28 08:08:22;;;;;;;5.53;1.23;;;14.40;95.40;;;;;;4948842;28;20570;-44
2022/05/28 08:10:48;;;;;;;7.53;1.88;;;14.40;95.50;;;;;;4949029;29;20063;-43
2022/05/28 08:13:18;;;;;;;5.35;1.05;;;14.40;95.60;;;;;;4947487;28;20082;-45
2022/05/28 08:15:45;;;;;;;4.70;1.00;;;14.40;95.50;;;;;;4947902;28;20039;-44
2022/05/28 08:18:13;;;;;;;5.72;1.50;;;14.70;95.50;;;;;;4948542;28;20027;-43
2022/05/28 08:23:22;;;;;;;3.53;0.90;;;14.80;94.50;;;;;;4948385;29;20562;-43
2022/05/28 08:25:49;;;;;;;5.82;1.20;;;14.80;94.60;;;;;;4949339;28;20032;-43
2022/05/28 08:28:16;;;;;;;5.30;1.45;;;14.80;95.00;;;;;;4948760;29;20094;-44
2022/05/28 08:30:42;;;;;;;6.65;1.88;;;14.70;94.50;;;;;;4948608;29;20491;-43
2022/05/28 08:33:10;;;;;;;5.00;1.48;;;14.60;94.70;;;;;;4949787;28;20059;-44
2022/05/28 08:35:37;;;;;;;6.72;1.40;;;14.40;94.60;;;;;;4948279;28;20041;-43
2022/05/28 08:38:08;;;;;;;5.63;1.42;;;14.30;94.70;;;;;;4949348;28;20034;-43
2022/05/28 08:40:42;;;;;;;6.93;1.33;;;14.30;94.90;;;;;;4947941;28;20086;-43
2022/05/28 08:43:08;;;;;;;6.35;1.10;;;14.30;94.80;;;;;;4948345;28;20101;-44
2022/05/28 08:45:35;;;;;;;4.97;1.48;;;14.50;94.20;;;;;;4947360;28;20023;-43
2022/05/28 08:48:01;;;;;;;4.47;1.60;;;14.70;94.20;;;;;;4947847;28;20023;-44
2022/05/28 08:50:28;;;;;;;7.18;1.48;;;14.80;94.00;;;;;;4948270;28;20176;-43
2022/05/28 08:53:01;;;;;;;4.40;1.27;;;15.00;93.00;;;;;;4949167;28;20364;-44
2022/05/28 08:55:28;;;;;;;5.30;1.20;;;14.90;93.00;;;;;;4947570;29;20786;-44
2022/05/28 08:58:01;;;;;;;6.10;1.27;;;14.90;93.30;;;;;;4948926;28;20545;-44
2022/05/28 09:00:38;;;;;;;3.22;1.17;;;15.00;93.40;;;;;;4948358;28;20027;-45
2022/05/28 09:03:16;;;;;;;2.75;1.05;;;15.10;93.30;;;;;;4947675;28;20360;-43
2022/05/28 09:06:07;;;;;;;5.22;1.50;;;15.30;93.20;;;;;;4948333;28;20372;-44
2022/05/28 09:08:39;;;;;;;5.25;1.30;;;15.40;92.60;;;;;;4948386;29;20413;-44
2022/05/28 09:11:18;;;;;;;6.28;1.50;;;15.40;92.30;;;;;;4947688;29;20964;-43
2022/05/28 09:13:46;;;;;;;3.10;1.20;;;15.40;92.40;;;;;;4948879;28;20251;-44
2022/05/28 09:16:26;;;;;;;3.78;1.15;;;15.30;92.60;;;;;;4948139;28;20109;-43
2022/05/28 09:18:54;;;;;;;4.65;1.80;;;15.20;92.80;;;;;;4949057;28;20039;-44
2022/05/28 09:21:21;;;;;;;3.75;1.40;;;15.10;92.90;;;;;;4948061;29;20059;-44
2022/05/28 09:23:57;;;;;;;4.82;1.40;;;15.00;92.60;;;;;;4947964;28;20031;-44
2022/05/28 09:26:43;;;;;;;5.15;1.67;;;15.10;92.10;;;;;;4948116;28;20497;-44
2022/05/28 09:29:21;;;;;;;8.57;1.63;;;15.30;91.90;;;;;;4948715;28;20039;-44
2022/05/28 09:32:02;;;;;;;9.48;1.67;;;15.40;91.60;;;;;;4947078;29;20027;-44
2022/05/28 09:34:35;;;;;;;5.68;1.25;;;15.50;91.80;;;;;;4947733;28;20027;-44
2022/05/28 09:37:21;;;;;;;6.05;2.00;;;15.40;91.60;;;;;;4947602;28;20034;-44
2022/05/28 09:39:53;;;;;;;4.72;1.20;;;15.30;91.60;;;;;;4948776;29;20086;-44
2022/05/28 09:42:30;;;;;;;4.15;1.30;;;15.20;91.90;;;;;;4948128;29;20551;-43
2022/05/28 09:45:07;;;;;;;5.25;1.65;;;15.20;92.20;;;;;;4947709;29;20055;-43
2022/05/28 09:47:44;;;;;;;6.78;1.38;;;15.30;91.60;;;;;;4947240;28;20375;-44
2022/05/28 09:50:19;;;;;;;5.57;1.20;;;15.50;91.30;;;;;;4948209;28;20555;-44
2022/05/28 09:55:53;;;;;;;7.82;2.03;;;15.70;91.10;;;;;;4928516;29;20038;-43
2022/05/28 09:58:22;;;;;;;4.53;1.40;;;15.70;90.60;;;;;;4943650;29;20027;-44
2022/05/28 10:00:49;;;;;;;3.95;1.20;;;15.60;90.70;;;;;;4948074;28;20046;-44
2022/05/28 10:06:13;;;;;;;4.07;1.13;;;15.60;90.80;;;;;;4928341;29;20107;-44
2022/05/28 10:08:38;;;;;;;5.93;1.20;;;15.70;91.00;;;;;;4944511;29;20024;-44
2022/05/28 10:11:05;;;;;;;3.78;1.02;;;15.90;91.10;;;;;;4947780;29;20031;-44
2022/05/28 10:14:03;;;;;;;4.43;1.27;;;16.00;90.90;;;;;;4945883;28;20552;-44
2022/05/28 10:16:40;;;;;;;7.85;1.80;;;16.10;90.50;;;;;;4927828;29;20048;-44
2022/05/28 10:19:34;;;;;;;5.05;1.60;;;16.00;90.30;;;;;;4944529;29;20027;-44
2022/05/28 10:22:04;;;;;;;5.88;1.10;;;15.80;90.60;;;;;;4947507;28;20085;-43
2022/05/28 10:24:40;;;;;;;3.75;1.20;;;15.70;90.90;;;;;;4944842;28;20027;-44
2022/05/28 10:27:19;;;;;;;5.07;1.67;;;15.60;91.10;;;;;;4947410;28;20133;-43
2022/05/28 10:29:48;;;;;;;6.22;1.25;;;15.60;91.20;;;;;;4947351;29;20038;-44
2022/05/28 10:32:27;;;;;;;4.40;1.10;;;15.60;91.10;;;;;;4947290;29;20039;-43
2022/05/28 10:35:11;;;;;;;3.35;1.13;;;15.70;90.70;;;;;;4946683;28;20031;-43
2022/05/28 10:37:37;;;;;;;4.78;1.13;;;15.80;90.60;;;;;;4947215;29;20038;-44
2022/05/28 10:40:08;;;;;;;5.55;1.50;;;16.00;90.60;;;;;;4947161;29;20114;-44
2022/05/28 10:42:34;;;;;;;6.38;1.77;;;16.00;89.80;;;;;;4946571;28;20074;-43
2022/05/28 10:45:00;;;;;;;5.55;1.55;;;16.10;89.40;;;;;;4947341;29;20608;-45
2022/05/28 10:47:47;;;;;;;4.47;1.20;;;16.10;89.30;;;;;;4946858;29;20055;-44
2022/05/28 10:50:22;;;;;;;6.65;1.67;;;16.30;89.20;;;;;;4947006;29;20370;-45
2022/05/28 10:53:10;;;;;;;4.40;1.30;;;16.50;86.00;;;;;;4946845;28;20085;-44
2022/05/28 10:56:02;;;;;;;3.75;1.35;;;16.50;85.80;;;;;;4946056;28;20441;-43
2022/05/28 10:58:37;;;;;;;3.35;1.30;;;16.30;86.20;;;;;;4947398;29;20036;-43
2022/05/28 11:01:06;;;;;;;2.85;1.08;;;16.20;87.20;;;;;;4944246;29;20082;-43
2022/05/28 11:04:09;;;;;;;4.03;1.35;;;16.10;88.00;;;;;;4945835;29;20053;-43
2022/05/28 11:06:44;;;;;;;6.75;1.58;;;16.20;88.10;;;;;;4946746;28;20027;-44
2022/05/28 11:09:30;;;;;;;3.80;1.40;;;16.40;86.10;;;;;;4947035;28;20035;-43
2022/05/28 11:12:14;;;;;;;4.38;1.30;;;16.40;85.90;;;;;;4936837;29;20051;-44
2022/05/28 11:14:59;;;;;;;5.70;1.73;;;16.40;85.80;;;;;;4946777;28;20027;-43
2022/05/28 11:17:49;;;;;;;5.22;1.67;;;16.40;86.50;;;;;;4946546;29;20423;-44
2022/05/28 11:20:46;;;;;;;4.72;1.48;;;16.30;86.10;;;;;;4948461;28;20035;-44
2022/05/28 11:23:47;;;;;;;7.10;2.10;;;16.10;85.00;;;;;;4947694;29;20376;-44
2022/05/28 11:26:36;;;;;;;4.68;1.33;;;16.00;83.70;;;;;;4942872;29;20086;-43
2022/05/28 11:29:13;;;;;;;5.22;1.70;;;16.00;84.20;;;;;;4931794;29;20100;-44
2022/05/28 11:31:42;;;;;;;3.00;1.00;;;16.00;83.00;;;;;;4948599;29;20054;-44
2022/05/28 11:34:27;;;;;;;4.97;1.30;;;16.10;83.60;;;;;;4951013;29;20082;-44
2022/05/28 11:37:01;;;;;;;3.80;1.20;;;16.20;82.00;;;;;;4949468;29;20069;-43
2022/05/28 11:39:43;;;;;;;8.48;1.58;;;16.30;81.00;;;;;;4949878;28;20034;-44
2022/05/28 11:42:29;;;;;;;7.93;1.70;;;16.50;79.50;;;;;;4950280;28;20020;-43
2022/05/28 11:44:56;;;;;;;5.50;1.33;;;16.50;77.90;;;;;;4949973;28;20377;-43
2022/05/28 11:47:32;;;;;;;3.60;1.25;;;16.40;76.10;;;;;;4949802;29;20101;-42
2022/05/28 11:53:21;;;;;;;3.25;1.17;;;16.20;76.20;;;;;;4950152;29;20058;-44
2022/05/28 11:55:51;;;;;;;4.97;1.40;;;16.30;75.90;;;;;;4949655;28;20819;-43
2022/05/28 11:58:26;;;;;;;4.70;1.10;;;16.30;74.50;;;;;;4949286;28;20091;-44
2022/05/28 12:00:57;;;;;;;2.28;0.98;;;16.30;74.50;;;;;;4950192;28;20027;-44
2022/05/28 12:03:25;;;;;;;2.67;1.08;;;16.20;75.50;;;;;;4949683;28;20038;-44
2022/05/28 12:06:06;;;;;;;3.42;1.00;;;16.20;75.70;;;;;;4947763;28;20114;-43
2022/05/28 12:08:35;;;;;;;5.80;1.50;;;16.20;75.00;;;;;;4948840;28;20418;-44
2022/05/28 12:11:04;;;;;;;2.28;1.13;;;16.30;75.80;;;;;;4948530;29;20478;-43
2022/05/28 12:13:35;;;;;;;3.83;1.25;;;16.40;75.70;;;;;;4945416;28;20049;-44
2022/05/28 12:16:11;;;;;;;3.42;1.17;;;16.40;75.70;;;;;;4949438;29;20106;-44
2022/05/28 12:18:41;;;;;;;4.65;1.70;;;16.40;76.10;;;;;;4944922;29;20138;-44
2022/05/28 12:21:07;;;;;;;3.92;1.20;;;16.40;75.60;;;;;;4940852;28;20022;-43
2022/05/28 12:23:34;;;;;;;4.57;1.50;;;16.40;76.30;;;;;;4948847;29;20028;-43
2022/05/28 12:26:03;;;;;;;3.85;1.10;;;16.40;76.60;;;;;;4948801;28;20649;-44
2022/05/28 12:28:49;;;;;;;5.82;1.20;;;16.30;77.30;;;;;;4949131;28;20047;-43
2022/05/28 12:31:26;;;;;;;8.15;1.80;;;16.20;77.20;;;;;;4949585;28;20373;-43
2022/05/28 12:33:56;;;;;;;3.72;1.30;;;16.20;76.40;;;;;;4948912;28;20078;-44
2022/05/28 12:36:43;;;;;;;4.80;1.42;;;16.30;76.30;;;;;;4948834;28;20053;-45
2022/05/28 12:39:35;;;;;;;2.55;0.90;;;16.40;75.50;;;;;;4948799;29;20102;-44
2022/05/28 12:42:03;;;;;;;3.17;1.20;;;16.40;75.60;;;;;;4948631;28;20034;-44
2022/05/28 12:44:29;;;;;;;3.20;1.00;;;16.60;75.00;;;;;;4947750;28;20027;-44
2022/05/28 12:47:00;;;;;;;2.90;1.20;;;16.70;73.50;;;;;;4948321;28;20045;-44
2022/05/28 12:49:33;;;;;;;2.90;1.00;;;16.80;74.30;;;;;;4948840;28;20030;-44
2022/05/28 12:52:04;;;;;;;4.78;1.33;;;16.90;74.40;;;;;;4949022;28;20075;-44
2022/05/28 12:54:34;;;;;;;3.72;1.13;;;17.00;71.70;;;;;;4947511;28;20027;-44
2022/05/28 12:57:13;;;;;;;2.17;0.95;;;17.00;72.90;;;;;;4946402;28;20418;-44
2022/05/28 12:59:43;;;;;;;4.38;1.17;;;17.20;73.30;;;;;;4947207;29;20456;-45
2022/05/28 13:02:26;;;;;;;4.55;1.30;;;17.40;73.20;;;;;;4948468;29;20034;-44
2022/05/28 13:05:00;;;;;;;3.95;1.30;;;17.50;72.70;;;;;;4948895;28;20035;-44
2022/05/28 13:07:36;;;;;;;4.57;1.35;;;17.50;73.30;;;;;;4947942;28;20034;-44
2022/05/28 13:10:14;;;;;;;4.88;1.40;;;17.40;73.90;;;;;;4947962;29;20039;-44
2022/05/28 13:12:53;;;;;;;5.88;1.73;;;17.40;75.60;;;;;;4947890;29;20094;-43
2022/05/28 13:15:46;;;;;;;3.08;1.35;;;17.30;76.90;;;;;;4947939;29;20486;-46
2022/05/28 13:18:30;;;;;;;8.85;1.80;;;17.10;77.60;;;;;;4948910;28;20055;-43
2022/05/28 13:21:17;;;;;;;3.78;1.50;;;16.90;77.80;;;;;;4946856;29;20047;-44